sensor_id;sensor_type;location;lat;lon;timestamp;pressure;altitude;pressure_sealevel;temperature;humidity
16016;BME280;8112;53.592;10.184;2023-07-13T00:04:16;101010.91;;;17.42;100.00
16016;BME280;8112;53.592;10.184;2023-07-13T00:09:21;101008.06;;;17.33;100.00
16016;BME280;8112;53.592;10.184;2023-07-13T00:14:24;101009.97;;;17.10;100.00
16016;BME280;8112;53.592;10.184;2023-07-13T00:19:25;101011.06;;;17.07;100.00
16016;BME280;8112;53.592;10.184;2023-07-13T00:24:29;101000.81;;;17.03;100.00
16016;BME280;8112;53.592;10.184;2023-07-13T00:29:30;100998.59;;;16.96;100.00
16016;BME280;8112;53.592;10.184;2023-07-13T00:34:34;101005.06;;;16.83;100.00
16016;BME280;8112;53.592;10.184;2023-07-13T00:39:37;101005.84;;;16.62;100.00
16016;BME280;8112;53.592;10.184;2023-07-13T00:44:39;101006.94;;;16.48;100.00
16016;BME280;8112;53.592;10.184;2023-07-13T00:49:41;101013.97;;;16.37;100.00
16016;BME280;8112;53.592;10.184;2023-07-13T00:54:46;101011.31;;;16.37;100.00
16016;BME280;8112;53.592;10.184;2023-07-13T00:59:55;101018.06;;;16.42;100.00
16016;BME280;8112;53.592;10.184;2023-07-13T01:04:58;101011.53;;;16.57;100.00
16016;BME280;8112;53.592;10.184;2023-07-13T01:10:03;101018.53;;;16.58;100.00
16016;BME280;8112;53.592;10.184;2023-07-13T01:15:33;101019.78;;;16.31;100.00
16016;BME280;8112;53.592;10.184;2023-07-13T01:20:36;101014.56;;;16.30;100.00
16016;BME280;8112;53.592;10.184;2023-07-13T01:25:40;101022.19;;;16.23;100.00
16016;BME280;8112;53.592;10.184;2023-07-13T01:30:43;101017.59;;;16.14;100.00
16016;BME280;8112;53.592;10.184;2023-07-13T01:35:46;101027.03;;;16.29;100.00
16016;BME280;8112;53.592;10.184;2023-07-13T01:40:52;101030.28;;;16.33;100.00
16016;BME280;8112;53.592;10.184;2023-07-13T01:45:54;101016.63;;;16.37;100.00
16016;BME280;8112;53.592;10.184;2023-07-13T01:50:55;101027.00;;;16.41;100.00
16016;BME280;8112;53.592;10.184;2023-07-13T01:55:58;101018.81;;;16.32;100.00
16016;BME280;8112;53.592;10.184;2023-07-13T02:01:00;101008.28;;;16.31;100.00
16016;BME280;8112;53.592;10.184;2023-07-13T02:06:02;101018.31;;;16.38;100.00
16016;BME280;8112;53.592;10.184;2023-07-13T02:11:06;100999.81;;;16.37;100.00
16016;BME280;8112;53.592;10.184;2023-07-13T02:16:08;101010.09;;;16.30;100.00
16016;BME280;8112;53.592;10.184;2023-07-13T02:21:09;101015.63;;;16.27;100.00
16016;BME280;8112;53.592;10.184;2023-07-13T02:26:13;101011.44;;;16.24;100.00
16016;BME280;8112;53.592;10.184;2023-07-13T02:31:16;101013.75;;;16.29;100.00
16016;BME280;8112;53.592;10.184;2023-07-13T02:36:17;101012.25;;;16.25;100.00
16016;BME280;8112;53.592;10.184;2023-07-13T02:41:21;101013.47;;;16.21;100.00
16016;BME280;8112;53.592;10.184;2023-07-13T02:46:23;101008.31;;;16.19;100.00
16016;BME280;8112;53.592;10.184;2023-07-13T02:51:26;101010.81;;;16.21;100.00
16016;BME280;8112;53.592;10.184;2023-07-13T02:56:31;101012.75;;;16.19;100.00
16016;BME280;8112;53.592;10.184;2023-07-13T03:01:33;101022.31;;;16.21;100.00
16016;BME280;8112;53.592;10.184;2023-07-13T03:06:36;101013.84;;;16.16;100.00
16016;BME280;8112;53.592;10.184;2023-07-13T03:11:40;101017.09;;;16.20;100.00
16016;BME280;8112;53.592;10.184;2023-07-13T03:16:56;101013.22;;;16.24;100.00
16016;BME280;8112;53.592;10.184;2023-07-13T03:22:02;101006.69;;;16.28;100.00
16016;BME280;8112;53.592;10.184;2023-07-13T03:27:06;101001.16;;;16.31;100.00
16016;BME280;8112;53.592;10.184;2023-07-13T03:32:11;101008.41;;;16.29;100.00
16016;BME280;8112;53.592;10.184;2023-07-13T03:37:13;101011.78;;;16.31;100.00
16016;BME280;8112;53.592;10.184;2023-07-13T03:42:16;101008.16;;;16.32;100.00
16016;BME280;8112;53.592;10.184;2023-07-13T03:47:18;100995.44;;;16.36;100.00
16016;BME280;8112;53.592;10.184;2023-07-13T03:52:21;100995.22;;;16.39;100.00
16016;BME280;8112;53.592;10.184;2023-07-13T03:57:25;101000.66;;;16.37;100.00
16016;BME280;8112;53.592;10.184;2023-07-13T04:02:28;101012.28;;;16.48;100.00
16016;BME280;8112;53.592;10.184;2023-07-13T04:07:29;101007.63;;;16.61;100.00
16016;BME280;8112;53.592;10.184;2023-07-13T04:12:32;101004.00;;;16.62;100.00
16016;BME280;8112;53.592;10.184;2023-07-13T04:17:34;101011.75;;;16.65;100.00
16016;BME280;8112;53.592;10.184;2023-07-13T04:22:36;101007.63;;;16.84;100.00
16016;BME280;8112;53.592;10.184;2023-07-13T04:27:39;101004.78;;;16.97;100.00
16016;BME280;8112;53.592;10.184;2023-07-13T04:32:40;101000.91;;;17.13;100.00
16016;BME280;8112;53.592;10.184;2023-07-13T04:37:42;100999.94;;;17.35;100.00
16016;BME280;8112;53.592;10.184;2023-07-13T04:42:45;100997.22;;;17.46;100.00
16016;BME280;8112;53.592;10.184;2023-07-13T04:47:47;100980.69;;;17.52;100.00
16016;BME280;8112;53.592;10.184;2023-07-13T04:52:50;100987.06;;;17.61;100.00
16016;BME280;8112;53.592;10.184;2023-07-13T04:57:53;100978.69;;;17.66;100.00
16016;BME280;8112;53.592;10.184;2023-07-13T05:02:55;100984.13;;;17.86;100.00
16016;BME280;8112;53.592;10.184;2023-07-13T05:07:57;100991.41;;;18.05;100.00
16016;BME280;8112;53.592;10.184;2023-07-13T05:13:00;100997.91;;;17.91;100.00
16016;BME280;8112;53.592;10.184;2023-07-13T05:18:02;101002.25;;;18.13;100.00
16016;BME280;8112;53.592;10.184;2023-07-13T05:23:04;100997.03;;;18.43;100.00
16016;BME280;8112;53.592;10.184;2023-07-13T05:28:07;101008.84;;;18.50;100.00
16016;BME280;8112;53.592;10.184;2023-07-13T05:33:08;101012.81;;;18.65;100.00
16016;BME280;8112;53.592;10.184;2023-07-13T05:38:10;101006.84;;;19.03;100.00
16016;BME280;8112;53.592;10.184;2023-07-13T05:43:13;101000.91;;;19.58;100.00
16016;BME280;8112;53.592;10.184;2023-07-13T05:48:15;100986.75;;;20.05;100.00
16016;BME280;8112;53.592;10.184;2023-07-13T05:53:17;100995.38;;;19.99;100.00
16016;BME280;8112;53.592;10.184;2023-07-13T05:58:20;100986.72;;;19.68;100.00
16016;BME280;8112;53.592;10.184;2023-07-13T06:03:22;100996.16;;;19.52;100.00
16016;BME280;8112;53.592;10.184;2023-07-13T06:08:24;100989.72;;;19.15;100.00
16016;BME280;8112;53.592;10.184;2023-07-13T06:13:27;101000.75;;;18.91;100.00
16016;BME280;8112;53.592;10.184;2023-07-13T06:18:28;100993.63;;;19.31;100.00
16016;BME280;8112;53.592;10.184;2023-07-13T06:23:30;100987.97;;;19.54;100.00
16016;BME280;8112;53.592;10.184;2023-07-13T06:28:34;101001.31;;;19.73;100.00
16016;BME280;8112;53.592;10.184;2023-07-13T06:33:37;100991.78;;;19.61;100.00
16016;BME280;8112;53.592;10.184;2023-07-13T06:38:39;100999.31;;;19.75;100.00
16016;BME280;8112;53.592;10.184;2023-07-13T06:43:42;101007.09;;;19.69;100.00
16016;BME280;8112;53.592;10.184;2023-07-13T06:48:43;101006.63;;;19.93;100.00
16016;BME280;8112;53.592;10.184;2023-07-13T06:53:45;101005.06;;;20.00;100.00
16016;BME280;8112;53.592;10.184;2023-07-13T06:58:48;101003.38;;;19.99;100.00
16016;BME280;8112;53.592;10.184;2023-07-13T07:03:50;101004.47;;;20.06;100.00
16016;BME280;8112;53.592;10.184;2023-07-13T07:08:52;101011.50;;;20.07;100.00
16016;BME280;8112;53.592;10.184;2023-07-13T07:13:55;101007.19;;;20.34;100.00
16016;BME280;8112;53.592;10.184;2023-07-13T07:18:57;101010.19;;;20.21;100.00
16016;BME280;8112;53.592;10.184;2023-07-13T07:23:58;101011.72;;;20.24;100.00
16016;BME280;8112;53.592;10.184;2023-07-13T07:29:02;100999.56;;;20.02;100.00
16016;BME280;8112;53.592;10.184;2023-07-13T07:34:04;101003.41;;;20.27;100.00
16016;BME280;8112;53.592;10.184;2023-07-13T07:39:05;101013.72;;;20.50;100.00
16016;BME280;8112;53.592;10.184;2023-07-13T07:44:08;101010.63;;;20.73;100.00
16016;BME280;8112;53.592;10.184;2023-07-13T07:49:11;101011.28;;;21.03;100.00
16016;BME280;8112;53.592;10.184;2023-07-13T07:54:12;101012.91;;;20.96;100.00
16016;BME280;8112;53.592;10.184;2023-07-13T07:59:16;100998.88;;;20.84;100.00
16016;BME280;8112;53.592;10.184;2023-07-13T08:04:18;101003.97;;;21.05;100.00
16016;BME280;8112;53.592;10.184;2023-07-13T08:09:19;101004.94;;;21.22;100.00
16016;BME280;8112;53.592;10.184;2023-07-13T08:14:23;101007.31;;;20.61;100.00
16016;BME280;8112;53.592;10.184;2023-07-13T08:19:24;100995.91;;;21.23;100.00
16016;BME280;8112;53.592;10.184;2023-07-13T08:24:26;101001.53;;;21.56;100.00
16016;BME280;8112;53.592;10.184;2023-07-13T08:29:29;101000.75;;;21.90;100.00
16016;BME280;8112;53.592;10.184;2023-07-13T08:34:32;101002.66;;;21.54;100.00
16016;BME280;8112;53.592;10.184;2023-07-13T08:39:33;101006.34;;;22.40;100.00
16016;BME280;8112;53.592;10.184;2023-07-13T08:44:42;101010.53;;;22.94;100.00
16016;BME280;8112;53.592;10.184;2023-07-13T08:49:46;101002.59;;;22.59;100.00
16016;BME280;8112;53.592;10.184;2023-07-13T08:54:50;100993.56;;;22.85;100.00
16016;BME280;8112;53.592;10.184;2023-07-13T08:59:54;101002.25;;;22.62;100.00
16016;BME280;8112;53.592;10.184;2023-07-13T09:05:00;100992.63;;;23.28;100.00
16016;BME280;8112;53.592;10.184;2023-07-13T09:10:11;100995.91;;;23.88;100.00
16016;BME280;8112;53.592;10.184;2023-07-13T09:15:24;100998.63;;;22.97;100.00
16016;BME280;8112;53.592;10.184;2023-07-13T09:20:30;101014.69;;;21.94;100.00
16016;BME280;8112;53.592;10.184;2023-07-13T09:25:34;101011.84;;;21.25;100.00
16016;BME280;8112;53.592;10.184;2023-07-13T09:30:43;101014.66;;;22.55;100.00
16016;BME280;8112;53.592;10.184;2023-07-13T09:35:46;101010.25;;;23.47;100.00
16016;BME280;8112;53.592;10.184;2023-07-13T09:40:59;100995.81;;;23.31;100.00
16016;BME280;8112;53.592;10.184;2023-07-13T09:46:20;100997.28;;;23.67;100.00
16016;BME280;8112;53.592;10.184;2023-07-13T09:51:22;101002.78;;;24.07;100.00
16016;BME280;8112;53.592;10.184;2023-07-13T09:56:27;100997.34;;;24.55;100.00
16016;BME280;8112;53.592;10.184;2023-07-13T10:01:34;101000.78;;;24.41;100.00
16016;BME280;8112;53.592;10.184;2023-07-13T10:06:36;101007.84;;;24.42;100.00
16016;BME280;8112;53.592;10.184;2023-07-13T10:11:40;101009.06;;;23.58;100.00
16016;BME280;8112;53.592;10.184;2023-07-13T10:16:45;101015.94;;;23.11;100.00
16016;BME280;8112;53.592;10.184;2023-07-13T10:21:53;101005.28;;;22.68;100.00
16016;BME280;8112;53.592;10.184;2023-07-13T10:26:58;101004.13;;;22.70;100.00
16016;BME280;8112;53.592;10.184;2023-07-13T10:32:09;101004.78;;;22.21;100.00
16016;BME280;8112;53.592;10.184;2023-07-13T10:37:19;100998.81;;;22.44;100.00
16016;BME280;8112;53.592;10.184;2023-07-13T10:42:28;100994.28;;;23.12;100.00
16016;BME280;8112;53.592;10.184;2023-07-13T10:47:32;100989.31;;;24.07;100.00
16016;BME280;8112;53.592;10.184;2023-07-13T10:52:45;100988.50;;;24.38;100.00
16016;BME280;8112;53.592;10.184;2023-07-13T10:57:48;100989.06;;;24.88;100.00
16016;BME280;8112;53.592;10.184;2023-07-13T11:02:57;100991.63;;;25.05;100.00
16016;BME280;8112;53.592;10.184;2023-07-13T11:08:13;100988.41;;;24.86;100.00
16016;BME280;8112;53.592;10.184;2023-07-13T11:13:38;100991.59;;;25.52;100.00
16016;BME280;8112;53.592;10.184;2023-07-13T11:19:28;100991.63;;;26.42;98.01
16016;BME280;8112;53.592;10.184;2023-07-13T11:24:49;100978.75;;;26.44;95.20
16016;BME280;8112;53.592;10.184;2023-07-13T11:29:52;100979.09;;;26.93;90.45
16016;BME280;8112;53.592;10.184;2023-07-13T11:35:13;100992.66;;;26.63;89.72
16016;BME280;8112;53.592;10.184;2023-07-13T11:40:17;100993.28;;;26.13;93.61
16016;BME280;8112;53.592;10.184;2023-07-13T11:45:21;100991.72;;;26.03;94.06
16016;BME280;8112;53.592;10.184;2023-07-13T11:50:25;100990.09;;;25.49;94.22
16016;BME280;8112;53.592;10.184;2023-07-13T11:55:28;100996.19;;;25.28;100.00
16016;BME280;8112;53.592;10.184;2023-07-13T12:00:31;101008.88;;;24.32;100.00
16016;BME280;8112;53.592;10.184;2023-07-13T12:05:36;101013.41;;;23.75;100.00
16016;BME280;8112;53.592;10.184;2023-07-13T12:10:37;101009.19;;;23.81;100.00
16016;BME280;8112;53.592;10.184;2023-07-13T12:15:41;101002.38;;;23.45;100.00
16016;BME280;8112;53.592;10.184;2023-07-13T12:20:45;101029.56;;;23.09;100.00
16016;BME280;8112;53.592;10.184;2023-07-13T12:25:48;101028.41;;;22.52;100.00
16016;BME280;8112;53.592;10.184;2023-07-13T12:30:49;101064.28;;;21.45;100.00
16016;BME280;8112;53.592;10.184;2023-07-13T12:36:02;101172.78;;;18.88;100.00
16016;BME280;8112;53.592;10.184;2023-07-13T12:41:08;101187.47;;;16.52;100.00
16016;BME280;8112;53.592;10.184;2023-07-13T12:46:17;101196.41;;;16.04;100.00
16016;BME280;8112;53.592;10.184;2023-07-13T12:51:25;101202.59;;;16.16;100.00
16016;BME280;8112;53.592;10.184;2023-07-13T12:56:28;101218.47;;;16.88;100.00
16016;BME280;8112;53.592;10.184;2023-07-13T13:01:33;101218.00;;;17.84;100.00
16016;BME280;8112;53.592;10.184;2023-07-13T13:06:39;101221.53;;;18.38;100.00
16016;BME280;8112;53.592;10.184;2023-07-13T13:11:41;101215.81;;;18.64;100.00
16016;BME280;8112;53.592;10.184;2023-07-13T13:16:47;101227.72;;;19.12;100.00
16016;BME280;8112;53.592;10.184;2023-07-13T13:21:54;101233.31;;;18.99;100.00
16016;BME280;8112;53.592;10.184;2023-07-13T13:26:56;101245.13;;;19.06;100.00
16016;BME280;8112;53.592;10.184;2023-07-13T13:31:58;101227.59;;;19.84;100.00
16016;BME280;8112;53.592;10.184;2023-07-13T13:37:01;101217.72;;;20.54;100.00
16016;BME280;8112;53.592;10.184;2023-07-13T13:42:03;101210.66;;;21.10;100.00
16016;BME280;8112;53.592;10.184;2023-07-13T13:47:17;101201.84;;;20.90;100.00
16016;BME280;8112;53.592;10.184;2023-07-13T13:52:23;101207.88;;;21.30;100.00
16016;BME280;8112;53.592;10.184;2023-07-13T13:57:25;101207.84;;;21.02;100.00
16016;BME280;8112;53.592;10.184;2023-07-13T14:02:28;101198.69;;;21.04;100.00
16016;BME280;8112;53.592;10.184;2023-07-13T14:07:33;101206.16;;;21.01;100.00
16016;BME280;8112;53.592;10.184;2023-07-13T14:12:35;101191.03;;;20.72;100.00
16016;BME280;8112;53.592;10.184;2023-07-13T14:17:36;101183.19;;;20.60;100.00
16016;BME280;8112;53.592;10.184;2023-07-13T14:22:39;101185.84;;;21.08;100.00
16016;BME280;8112;53.592;10.184;2023-07-13T14:27:45;101193.16;;;21.34;100.00
16016;BME280;8112;53.592;10.184;2023-07-13T14:32:49;101183.06;;;21.28;100.00
16016;BME280;8112;53.592;10.184;2023-07-13T14:37:53;101188.84;;;21.23;100.00
16016;BME280;8112;53.592;10.184;2023-07-13T14:42:54;101183.88;;;21.28;100.00
16016;BME280;8112;53.592;10.184;2023-07-13T14:47:56;101172.81;;;21.59;100.00
16016;BME280;8112;53.592;10.184;2023-07-13T14:52:59;101173.81;;;21.76;100.00
16016;BME280;8112;53.592;10.184;2023-07-13T14:58:01;101177.38;;;21.77;100.00
16016;BME280;8112;53.592;10.184;2023-07-13T15:03:03;101182.59;;;21.32;100.00
16016;BME280;8112;53.592;10.184;2023-07-13T15:08:09;101182.09;;;20.91;100.00
16016;BME280;8112;53.592;10.184;2023-07-13T15:13:17;101185.03;;;20.98;100.00
16016;BME280;8112;53.592;10.184;2023-07-13T15:18:20;101194.94;;;20.97;100.00
16016;BME280;8112;53.592;10.184;2023-07-13T15:23:24;101187.25;;;21.95;100.00
16016;BME280;8112;53.592;10.184;2023-07-13T15:28:26;101186.38;;;21.58;100.00
16016;BME280;8112;53.592;10.184;2023-07-13T15:33:29;101174.78;;;21.39;100.00
16016;BME280;8112;53.592;10.184;2023-07-13T15:38:35;101185.34;;;21.23;100.00
16016;BME280;8112;53.592;10.184;2023-07-13T15:43:39;101177.38;;;21.31;100.00
16016;BME280;8112;53.592;10.184;2023-07-13T15:48:41;101191.09;;;21.28;100.00
16016;BME280;8112;53.592;10.184;2023-07-13T15:53:44;101180.44;;;22.00;100.00
16016;BME280;8112;53.592;10.184;2023-07-13T15:58:46;101192.06;;;21.91;100.00
16016;BME280;8112;53.592;10.184;2023-07-13T16:03:48;101189.28;;;21.46;100.00
16016;BME280;8112;53.592;10.184;2023-07-13T16:08:53;101182.50;;;21.70;100.00
16016;BME280;8112;53.592;10.184;2023-07-13T16:13:55;101177.59;;;23.24;100.00
16016;BME280;8112;53.592;10.184;2023-07-13T16:19:01;101163.31;;;24.73;100.00
16016;BME280;8112;53.592;10.184;2023-07-13T16:24:04;101182.91;;;24.42;100.00
16016;BME280;8112;53.592;10.184;2023-07-13T16:29:14;101185.59;;;23.51;100.00
16016;BME280;8112;53.592;10.184;2023-07-13T16:34:16;101184.09;;;21.99;100.00
16016;BME280;8112;53.592;10.184;2023-07-13T16:39:20;101191.00;;;21.84;100.00
16016;BME280;8112;53.592;10.184;2023-07-13T16:44:24;101185.44;;;23.85;100.00
16016;BME280;8112;53.592;10.184;2023-07-13T16:49:30;101186.31;;;22.75;100.00
16016;BME280;8112;53.592;10.184;2023-07-13T16:54:35;101187.94;;;22.68;100.00
16016;BME280;8112;53.592;10.184;2023-07-13T16:59:38;101195.22;;;24.44;100.00
16016;BME280;8112;53.592;10.184;2023-07-13T17:04:39;101190.63;;;23.02;100.00
16016;BME280;8112;53.592;10.184;2023-07-13T17:09:43;101201.28;;;24.30;100.00
16016;BME280;8112;53.592;10.184;2023-07-13T17:14:46;101199.97;;;23.25;100.00
16016;BME280;8112;53.592;10.184;2023-07-13T17:19:50;101204.13;;;21.69;100.00
16016;BME280;8112;53.592;10.184;2023-07-13T17:24:54;101197.53;;;21.35;100.00
16016;BME280;8112;53.592;10.184;2023-07-13T17:29:57;101203.00;;;21.15;100.00
16016;BME280;8112;53.592;10.184;2023-07-13T17:34:59;101215.66;;;21.23;100.00
16016;BME280;8112;53.592;10.184;2023-07-13T17:40:06;101217.91;;;20.90;100.00
16016;BME280;8112;53.592;10.184;2023-07-13T17:45:15;101213.31;;;20.62;100.00
16016;BME280;8112;53.592;10.184;2023-07-13T17:50:25;101213.22;;;20.54;100.00
16016;BME280;8112;53.592;10.184;2023-07-13T17:55:34;101220.13;;;20.47;100.00
16016;BME280;8112;53.592;10.184;2023-07-13T18:00:38;101229.44;;;20.33;100.00
16016;BME280;8112;53.592;10.184;2023-07-13T18:05:42;101235.69;;;20.14;100.00
16016;BME280;8112;53.592;10.184;2023-07-13T18:10:45;101234.69;;;20.05;100.00
16016;BME280;8112;53.592;10.184;2023-07-13T18:15:47;101242.00;;;20.03;100.00
16016;BME280;8112;53.592;10.184;2023-07-13T18:20:49;101246.88;;;19.88;100.00
16016;BME280;8112;53.592;10.184;2023-07-13T18:25:52;101253.06;;;19.69;100.00
16016;BME280;8112;53.592;10.184;2023-07-13T18:30:55;101249.66;;;19.57;100.00
16016;BME280;8112;53.592;10.184;2023-07-13T18:35:58;101248.25;;;19.52;100.00
16016;BME280;8112;53.592;10.184;2023-07-13T18:41:02;101253.63;;;19.72;100.00
16016;BME280;8112;53.592;10.184;2023-07-13T18:46:19;101254.53;;;19.92;100.00
16016;BME280;8112;53.592;10.184;2023-07-13T18:51:21;101250.47;;;19.98;100.00
16016;BME280;8112;53.592;10.184;2023-07-13T18:56:25;101257.44;;;19.70;100.00
16016;BME280;8112;53.592;10.184;2023-07-13T19:01:30;101259.78;;;19.53;100.00
16016;BME280;8112;53.592;10.184;2023-07-13T19:06:35;101262.59;;;19.61;100.00
16016;BME280;8112;53.592;10.184;2023-07-13T19:11:38;101279.66;;;19.70;100.00
16016;BME280;8112;53.592;10.184;2023-07-13T19:16:40;101283.34;;;19.38;100.00
16016;BME280;8112;53.592;10.184;2023-07-13T19:21:44;101298.59;;;19.16;100.00
16016;BME280;8112;53.592;10.184;2023-07-13T19:26:48;101300.00;;;18.89;100.00
16016;BME280;8112;53.592;10.184;2023-07-13T19:31:51;101301.03;;;18.77;100.00
16016;BME280;8112;53.592;10.184;2023-07-13T19:36:58;101313.53;;;18.55;100.00
16016;BME280;8112;53.592;10.184;2023-07-13T19:42:08;101313.31;;;18.47;100.00
16016;BME280;8112;53.592;10.184;2023-07-13T19:47:13;101312.78;;;18.32;100.00
16016;BME280;8112;53.592;10.184;2023-07-13T19:52:16;101323.09;;;18.25;100.00
16016;BME280;8112;53.592;10.184;2023-07-13T19:57:22;101326.66;;;18.14;100.00
16016;BME280;8112;53.592;10.184;2023-07-13T20:02:25;101327.00;;;18.21;100.00
16016;BME280;8112;53.592;10.184;2023-07-13T20:07:28;101338.53;;;18.21;100.00
16016;BME280;8112;53.592;10.184;2023-07-13T20:12:33;101341.81;;;18.14;100.00
16016;BME280;8112;53.592;10.184;2023-07-13T20:17:36;101353.44;;;18.01;100.00
16016;BME280;8112;53.592;10.184;2023-07-13T20:22:39;101357.34;;;17.97;100.00
16016;BME280;8112;53.592;10.184;2023-07-13T20:27:42;101368.28;;;17.83;100.00
16016;BME280;8112;53.592;10.184;2023-07-13T20:32:44;101368.75;;;17.65;100.00
16016;BME280;8112;53.592;10.184;2023-07-13T20:37:47;101364.25;;;17.65;100.00
16016;BME280;8112;53.592;10.184;2023-07-13T20:42:52;101369.97;;;17.49;100.00
16016;BME280;8112;53.592;10.184;2023-07-13T20:47:56;101380.13;;;17.56;100.00
16016;BME280;8112;53.592;10.184;2023-07-13T20:53:01;101375.31;;;17.61;100.00
16016;BME280;8112;53.592;10.184;2023-07-13T20:58:04;101383.44;;;17.48;100.00
16016;BME280;8112;53.592;10.184;2023-07-13T21:03:07;101399.50;;;17.35;100.00
16016;BME280;8112;53.592;10.184;2023-07-13T21:08:17;101404.44;;;17.28;100.00
16016;BME280;8112;53.592;10.184;2023-07-13T21:13:20;101414.66;;;17.34;100.00
16016;BME280;8112;53.592;10.184;2023-07-13T21:18:23;101413.31;;;17.51;100.00
16016;BME280;8112;53.592;10.184;2023-07-13T21:23:27;101418.78;;;17.50;100.00
16016;BME280;8112;53.592;10.184;2023-07-13T21:28:34;101415.03;;;17.41;100.00
16016;BME280;8112;53.592;10.184;2023-07-13T21:33:36;101420.56;;;17.27;100.00
16016;BME280;8112;53.592;10.184;2023-07-13T21:38:39;101426.09;;;17.12;100.00
16016;BME280;8112;53.592;10.184;2023-07-13T21:43:43;101433.00;;;16.90;100.00
16016;BME280;8112;53.592;10.184;2023-07-13T21:48:45;101435.53;;;16.92;100.00
16016;BME280;8112;53.592;10.184;2023-07-13T21:53:48;101428.31;;;16.94;100.00
16016;BME280;8112;53.592;10.184;2023-07-13T21:58:51;101428.81;;;16.75;100.00
16016;BME280;8112;53.592;10.184;2023-07-13T22:03:55;101431.88;;;16.57;100.00
16016;BME280;8112;53.592;10.184;2023-07-13T22:08:57;101437.44;;;16.54;100.00
16016;BME280;8112;53.592;10.184;2023-07-13T22:14:00;101438.66;;;16.61;100.00
16016;BME280;8112;53.592;10.184;2023-07-13T22:19:10;101428.03;;;16.61;100.00
16016;BME280;8112;53.592;10.184;2023-07-13T22:24:15;101434.94;;;16.64;100.00
16016;BME280;8112;53.592;10.184;2023-07-13T22:29:20;101438.91;;;16.58;100.00
16016;BME280;8112;53.592;10.184;2023-07-13T22:34:24;101436.38;;;16.57;100.00
16016;BME280;8112;53.592;10.184;2023-07-13T22:39:28;101441.59;;;16.21;100.00
16016;BME280;8112;53.592;10.184;2023-07-13T22:44:33;101434.47;;;16.08;100.00
16016;BME280;8112;53.592;10.184;2023-07-13T22:49:35;101430.66;;;16.00;100.00
16016;BME280;8112;53.592;10.184;2023-07-13T22:54:37;101436.94;;;15.99;100.00
16016;BME280;8112;53.592;10.184;2023-07-13T22:59:41;101444.81;;;15.87;100.00
16016;BME280;8112;53.592;10.184;2023-07-13T23:04:43;101446.75;;;15.98;100.00
16016;BME280;8112;53.592;10.184;2023-07-13T23:09:49;101450.03;;;16.02;100.00
16016;BME280;8112;53.592;10.184;2023-07-13T23:14:52;101448.72;;;16.07;100.00
16016;BME280;8112;53.592;10.184;2023-07-13T23:19:54;101451.19;;;16.10;100.00
16016;BME280;8112;53.592;10.184;2023-07-13T23:24:55;101448.81;;;16.19;100.00
16016;BME280;8112;53.592;10.184;2023-07-13T23:29:58;101443.72;;;16.16;100.00
16016;BME280;8112;53.592;10.184;2023-07-13T23:35:00;101450.28;;;16.23;100.00
16016;BME280;8112;53.592;10.184;2023-07-13T23:40:11;101450.19;;;16.24;100.00
16016;BME280;8112;53.592;10.184;2023-07-13T23:45:17;101454.44;;;16.27;100.00
16016;BME280;8112;53.592;10.184;2023-07-13T23:50:21;101447.22;;;16.29;100.00
16016;BME280;8112;53.592;10.184;2023-07-13T23:55:25;101452.84;;;16.24;100.00
